sensor_id;sensor_type;location;lat;lon;timestamp;pressure;altitude;pressure_sealevel;temperature;humidity
40490;BME280;26196;52.302;10.572;2022-11-25T00:01:34;100509.81;;;12.15;51.18
40490;BME280;26196;52.302;10.572;2022-11-25T00:05:34;100512.47;;;12.14;50.75
40490;BME280;26196;52.302;10.572;2022-11-25T00:09:34;100516.16;;;12.08;50.86
40490;BME280;26196;52.302;10.572;2022-11-25T00:13:36;100505.66;;;12.08;50.48
40490;BME280;26196;52.302;10.572;2022-11-25T00:17:36;100497.75;;;12.10;50.87
40490;BME280;26196;52.302;10.572;2022-11-25T00:21:37;100505.66;;;12.08;51.12
40490;BME280;26196;52.302;10.572;2022-11-25T00:25:37;100497.09;;;12.03;50.74
40490;BME280;26196;52.302;10.572;2022-11-25T00:29:37;100494.47;;;12.03;50.63
40490;BME280;26196;52.302;10.572;2022-11-25T00:33:38;100504.25;;;11.98;50.87
40490;BME280;26196;52.302;10.572;2022-11-25T00:37:38;100498.19;;;11.96;51.07
40490;BME280;26196;52.302;10.572;2022-11-25T00:41:39;100503.44;;;11.96;50.84
40490;BME280;26196;52.302;10.572;2022-11-25T00:45:58;100504.25;;;11.98;50.42
40490;BME280;26196;52.302;10.572;2022-11-25T00:49:58;100500.91;;;11.93;50.60
40490;BME280;26196;52.302;10.572;2022-11-25T00:53:59;100497.59;;;11.88;50.48
40490;BME280;26196;52.302;10.572;2022-11-25T00:57:59;100504.63;;;11.86;50.34
40490;BME280;26196;52.302;10.572;2022-11-25T01:01:59;100510.72;;;11.88;50.42
40490;BME280;26196;52.302;10.572;2022-11-25T01:06:01;100503.88;;;11.82;50.63
40490;BME280;26196;52.302;10.572;2022-11-25T01:10:01;100506.44;;;11.83;50.47
40490;BME280;26196;52.302;10.572;2022-11-25T01:14:02;100504.84;;;11.78;50.61
40490;BME280;26196;52.302;10.572;2022-11-25T01:18:02;100497.88;;;11.78;50.38
40490;BME280;26196;52.302;10.572;2022-11-25T01:22:03;100499.56;;;11.79;50.13
40490;BME280;26196;52.302;10.572;2022-11-25T01:26:05;100499.63;;;11.78;49.97
40490;BME280;26196;52.302;10.572;2022-11-25T01:30:07;100499.78;;;11.73;50.23
40490;BME280;26196;52.302;10.572;2022-11-25T01:34:17;100503.41;;;11.69;50.36
40490;BME280;26196;52.302;10.572;2022-11-25T01:38:18;100504.34;;;11.67;50.00
40490;BME280;26196;52.302;10.572;2022-11-25T01:42:18;100487.91;;;11.61;50.30
40490;BME280;26196;52.302;10.572;2022-11-25T01:46:26;100485.28;;;11.61;50.13
40490;BME280;26196;52.302;10.572;2022-11-25T01:50:30;100480.16;;;11.58;50.01
40490;BME280;26196;52.302;10.572;2022-11-25T01:54:39;100474.16;;;11.55;49.73
40490;BME280;26196;52.302;10.572;2022-11-25T01:58:43;100459.38;;;11.52;49.52
40490;BME280;26196;52.302;10.572;2022-11-25T02:02:46;100461.22;;;11.49;49.66
40490;BME280;26196;52.302;10.572;2022-11-25T02:06:52;100468.19;;;11.50;49.76
40490;BME280;26196;52.302;10.572;2022-11-25T02:10:54;100463.00;;;11.48;49.24
40490;BME280;26196;52.302;10.572;2022-11-25T02:14:57;100458.59;;;11.49;49.38
40490;BME280;26196;52.302;10.572;2022-11-25T02:18:58;100463.13;;;11.44;49.46
40490;BME280;26196;52.302;10.572;2022-11-25T02:23:17;100457.06;;;11.42;49.22
40490;BME280;26196;52.302;10.572;2022-11-25T02:27:19;100458.00;;;11.41;49.70
40490;BME280;26196;52.302;10.572;2022-11-25T02:31:21;100450.13;;;11.41;49.20
40490;BME280;26196;52.302;10.572;2022-11-25T02:35:34;100453.66;;;11.39;49.13
40490;BME280;26196;52.302;10.572;2022-11-25T02:39:35;100462.63;;;11.32;49.19
40490;BME280;26196;52.302;10.572;2022-11-25T02:43:36;100464.31;;;11.33;48.84
40490;BME280;26196;52.302;10.572;2022-11-25T02:47:37;100463.59;;;11.28;49.22
40490;BME280;26196;52.302;10.572;2022-11-25T02:51:40;100453.22;;;11.25;49.25
40490;BME280;26196;52.302;10.572;2022-11-25T02:55:41;100457.59;;;11.26;48.52
40490;BME280;26196;52.302;10.572;2022-11-25T02:59:41;100457.59;;;11.26;48.92
40490;BME280;26196;52.302;10.572;2022-11-25T03:03:42;100458.69;;;11.17;48.88
40490;BME280;26196;52.302;10.572;2022-11-25T03:07:42;100470.75;;;11.23;48.55
40490;BME280;26196;52.302;10.572;2022-11-25T03:11:42;100469.09;;;11.21;48.62
40490;BME280;26196;52.302;10.572;2022-11-25T03:16:01;100465.69;;;11.19;48.45
40490;BME280;26196;52.302;10.572;2022-11-25T03:20:04;100458.69;;;11.17;48.18
40490;BME280;26196;52.302;10.572;2022-11-25T03:24:04;100460.56;;;11.14;48.66
40490;BME280;26196;52.302;10.572;2022-11-25T03:28:05;100461.63;;;11.08;48.61
40490;BME280;26196;52.302;10.572;2022-11-25T03:32:06;100450.22;;;11.09;48.83
40490;BME280;26196;52.302;10.572;2022-11-25T03:36:06;100456.31;;;11.10;48.61
40490;BME280;26196;52.302;10.572;2022-11-25T03:40:08;100463.34;;;11.08;48.57
40490;BME280;26196;52.302;10.572;2022-11-25T03:44:09;100442.56;;;11.03;48.72
40490;BME280;26196;52.302;10.572;2022-11-25T03:48:10;100445.31;;;10.99;49.04
40490;BME280;26196;52.302;10.572;2022-11-25T03:52:10;100445.50;;;10.92;48.95
40490;BME280;26196;52.302;10.572;2022-11-25T03:56:10;100454.25;;;10.91;48.86
40490;BME280;26196;52.302;10.572;2022-11-25T04:00:11;100462.09;;;10.91;48.78
40490;BME280;26196;52.302;10.572;2022-11-25T04:04:12;100463.22;;;10.83;48.96
40490;BME280;26196;52.302;10.572;2022-11-25T04:08:12;100464.78;;;10.90;48.83
40490;BME280;26196;52.302;10.572;2022-11-25T04:12:12;100465.72;;;10.87;49.34
40490;BME280;26196;52.302;10.572;2022-11-25T04:16:31;100460.50;;;10.87;49.07
40490;BME280;26196;52.302;10.572;2022-11-25T04:20:32;100468.38;;;10.86;49.13
40490;BME280;26196;52.302;10.572;2022-11-25T04:24:32;100456.22;;;10.83;48.80
40490;BME280;26196;52.302;10.572;2022-11-25T04:28:32;100461.56;;;10.80;48.75
40490;BME280;26196;52.302;10.572;2022-11-25T04:32:33;100461.59;;;10.79;48.80
40490;BME280;26196;52.302;10.572;2022-11-25T04:36:35;100464.22;;;10.79;49.29
40490;BME280;26196;52.302;10.572;2022-11-25T04:40:36;100454.69;;;10.76;49.01
40490;BME280;26196;52.302;10.572;2022-11-25T04:44:36;100463.44;;;10.75;49.19
40490;BME280;26196;52.302;10.572;2022-11-25T04:48:37;100456.44;;;10.76;48.81
40490;BME280;26196;52.302;10.572;2022-11-25T04:52:37;100459.13;;;10.74;49.17
40490;BME280;26196;52.302;10.572;2022-11-25T04:56:38;100447.13;;;10.65;49.17
40490;BME280;26196;52.302;10.572;2022-11-25T05:00:38;100457.53;;;10.68;48.94
40490;BME280;26196;52.302;10.572;2022-11-25T05:04:38;100456.63;;;10.69;48.83
40490;BME280;26196;52.302;10.572;2022-11-25T05:08:39;100449.84;;;10.62;48.60
40490;BME280;26196;52.302;10.572;2022-11-25T05:12:39;100457.59;;;10.67;48.85
40490;BME280;26196;52.302;10.572;2022-11-25T05:16:40;100454.22;;;10.62;48.68
40490;BME280;26196;52.302;10.572;2022-11-25T05:20:40;100458.56;;;10.63;48.77
40490;BME280;26196;52.302;10.572;2022-11-25T05:24:41;100456.00;;;10.61;49.09
40490;BME280;26196;52.302;10.572;2022-11-25T05:28:41;100456.84;;;10.62;49.20
40490;BME280;26196;52.302;10.572;2022-11-25T05:32:42;100462.97;;;10.61;49.33
40490;BME280;26196;52.302;10.572;2022-11-25T05:36:43;100457.81;;;10.58;49.57
40490;BME280;26196;52.302;10.572;2022-11-25T05:40:43;100457.88;;;10.56;49.25
40490;BME280;26196;52.302;10.572;2022-11-25T05:44:43;100461.34;;;10.57;49.46
40490;BME280;26196;52.302;10.572;2022-11-25T05:48:44;100451.84;;;10.54;49.23
40490;BME280;26196;52.302;10.572;2022-11-25T05:52:44;100453.59;;;10.54;49.36
40490;BME280;26196;52.302;10.572;2022-11-25T05:56:44;100447.47;;;10.53;49.55
40490;BME280;26196;52.302;10.572;2022-11-25T06:00:45;100457.94;;;10.53;49.28
40490;BME280;26196;52.302;10.572;2022-11-25T06:04:45;100445.69;;;10.55;49.32
40490;BME280;26196;52.302;10.572;2022-11-25T06:08:46;100445.75;;;10.54;49.67
40490;BME280;26196;52.302;10.572;2022-11-25T06:12:46;100447.47;;;10.53;49.76
40490;BME280;26196;52.302;10.572;2022-11-25T06:16:47;100447.53;;;10.51;49.37
40490;BME280;26196;52.302;10.572;2022-11-25T06:20:57;100446.78;;;10.48;49.53
40490;BME280;26196;52.302;10.572;2022-11-25T06:24:58;100450.19;;;10.50;49.77
40490;BME280;26196;52.302;10.572;2022-11-25T06:28:58;100451.13;;;10.47;50.31
40490;BME280;26196;52.302;10.572;2022-11-25T06:32:59;100451.13;;;10.47;49.56
40490;BME280;26196;52.302;10.572;2022-11-25T06:36:59;100458.97;;;10.47;49.58
40490;BME280;26196;52.302;10.572;2022-11-25T06:41:01;100461.69;;;10.44;48.88
40490;BME280;26196;52.302;10.572;2022-11-25T06:45:02;100458.25;;;10.42;49.12
40490;BME280;26196;52.302;10.572;2022-11-25T06:49:02;100452.25;;;10.39;49.00
40490;BME280;26196;52.302;10.572;2022-11-25T06:53:02;100460.06;;;10.40;49.50
40490;BME280;26196;52.302;10.572;2022-11-25T06:57:03;100462.72;;;10.39;49.71
40490;BME280;26196;52.302;10.572;2022-11-25T07:01:17;100461.81;;;10.40;49.13
40490;BME280;26196;52.302;10.572;2022-11-25T07:05:18;100461.88;;;10.38;49.42
40490;BME280;26196;52.302;10.572;2022-11-25T07:09:19;100456.63;;;10.38;48.89
40490;BME280;26196;52.302;10.572;2022-11-25T07:13:20;100464.47;;;10.38;48.83
40490;BME280;26196;52.302;10.572;2022-11-25T07:17:21;100468.91;;;10.35;48.78
40490;BME280;26196;52.302;10.572;2022-11-25T07:21:23;100470.78;;;10.31;49.42
40490;BME280;26196;52.302;10.572;2022-11-25T07:25:24;100476.84;;;10.32;49.01
40490;BME280;26196;52.302;10.572;2022-11-25T07:29:24;100472.56;;;10.29;49.13
40490;BME280;26196;52.302;10.572;2022-11-25T07:33:24;100483.94;;;10.28;48.97
40490;BME280;26196;52.302;10.572;2022-11-25T07:37:25;100484.78;;;10.27;49.20
40490;BME280;26196;52.302;10.572;2022-11-25T07:41:27;100496.09;;;10.29;49.30
40490;BME280;26196;52.302;10.572;2022-11-25T07:45:28;100501.41;;;10.27;49.51
40490;BME280;26196;52.302;10.572;2022-11-25T07:49:29;100498.00;;;10.22;48.79
40490;BME280;26196;52.302;10.572;2022-11-25T07:53:29;100494.56;;;10.20;49.40
40490;BME280;26196;52.302;10.572;2022-11-25T07:57:29;100504.94;;;10.23;48.71
40490;BME280;26196;52.302;10.572;2022-11-25T08:01:30;100518.88;;;10.24;49.42
40490;BME280;26196;52.302;10.572;2022-11-25T08:05:31;100520.72;;;10.20;48.89
40490;BME280;26196;52.302;10.572;2022-11-25T08:09:32;100519.81;;;10.21;49.02
40490;BME280;26196;52.302;10.572;2022-11-25T08:13:32;100517.13;;;10.24;48.91
40490;BME280;26196;52.302;10.572;2022-11-25T08:17:33;100519.72;;;10.24;49.58
40490;BME280;26196;52.302;10.572;2022-11-25T08:21:33;100525.19;;;10.17;49.40
40490;BME280;26196;52.302;10.572;2022-11-25T08:25:39;100535.47;;;10.23;49.17
40490;BME280;26196;52.302;10.572;2022-11-25T08:29:40;100539.81;;;10.24;49.01
40490;BME280;26196;52.302;10.572;2022-11-25T08:33:41;100546.81;;;10.23;49.32
40490;BME280;26196;52.302;10.572;2022-11-25T08:37:42;100551.19;;;10.21;49.60
40490;BME280;26196;52.302;10.572;2022-11-25T08:41:42;100554.66;;;10.22;49.29
40490;BME280;26196;52.302;10.572;2022-11-25T08:45:43;100545.22;;;10.16;49.10
40490;BME280;26196;52.302;10.572;2022-11-25T08:49:43;100546.81;;;10.22;49.46
40490;BME280;26196;52.302;10.572;2022-11-25T08:53:44;100552.97;;;10.21;49.04
40490;BME280;26196;52.302;10.572;2022-11-25T08:57:44;100552.13;;;10.20;49.68
40490;BME280;26196;52.302;10.572;2022-11-25T09:01:45;100547.75;;;10.21;49.81
40490;BME280;26196;52.302;10.572;2022-11-25T09:05:45;100551.25;;;10.20;49.39
40490;BME280;26196;52.302;10.572;2022-11-25T09:09:46;100554.75;;;10.19;49.44
40490;BME280;26196;52.302;10.572;2022-11-25T09:13:46;100556.44;;;10.21;49.73
40490;BME280;26196;52.302;10.572;2022-11-25T09:17:46;100556.50;;;10.20;49.95
40490;BME280;26196;52.302;10.572;2022-11-25T09:21:47;100560.78;;;10.22;49.69
40490;BME280;26196;52.302;10.572;2022-11-25T09:25:55;100569.50;;;10.23;49.96
40490;BME280;26196;52.302;10.572;2022-11-25T09:29:56;100573.81;;;10.24;49.89
40490;BME280;26196;52.302;10.572;2022-11-25T09:33:56;100572.03;;;10.26;50.17
40490;BME280;26196;52.302;10.572;2022-11-25T09:37:56;100575.56;;;10.25;50.73
40490;BME280;26196;52.302;10.572;2022-11-25T09:42:10;100577.28;;;10.24;49.91
40490;BME280;26196;52.302;10.572;2022-11-25T09:46:55;100579.03;;;10.25;50.53
40490;BME280;26196;52.302;10.572;2022-11-25T09:51:14;100570.25;;;10.26;50.19
40490;BME280;26196;52.302;10.572;2022-11-25T09:55:21;100569.41;;;10.26;50.51
40490;BME280;26196;52.302;10.572;2022-11-25T09:59:34;100571.97;;;10.29;50.35
40490;BME280;26196;52.302;10.572;2022-11-25T10:03:48;100561.50;;;10.29;50.51
40490;BME280;26196;52.302;10.572;2022-11-25T10:07:58;100570.16;;;10.33;50.87
40490;BME280;26196;52.302;10.572;2022-11-25T10:12:05;100578.88;;;10.33;50.94
40490;BME280;26196;52.302;10.572;2022-11-25T10:20:38;100578.88;;;10.33;50.94
40490;BME280;26196;52.302;10.572;2022-11-25T10:24:40;100579.59;;;10.38;50.73
40490;BME280;26196;52.302;10.572;2022-11-25T10:28:50;100561.50;;;10.29;51.15
40490;BME280;26196;52.302;10.572;2022-11-25T10:37:40;100579.56;;;10.40;51.33
40490;BME280;26196;52.302;10.572;2022-11-25T10:42:04;100575.19;;;10.40;51.35
40490;BME280;26196;52.302;10.572;2022-11-25T10:50:26;100583.84;;;10.42;51.83
40490;BME280;26196;52.302;10.572;2022-11-25T10:54:31;100580.28;;;10.45;52.03
40490;BME280;26196;52.302;10.572;2022-11-25T10:58:35;100586.34;;;10.47;51.95
40490;BME280;26196;52.302;10.572;2022-11-25T11:02:39;100595.97;;;10.46;51.72
40490;BME280;26196;52.302;10.572;2022-11-25T11:06:42;100586.34;;;10.47;52.03
40490;BME280;26196;52.302;10.572;2022-11-25T11:10:44;100595.06;;;10.47;52.35
40490;BME280;26196;52.302;10.572;2022-11-25T11:14:44;100594.97;;;10.50;52.06
40490;BME280;26196;52.302;10.572;2022-11-25T11:18:45;100598.41;;;10.54;52.45
40490;BME280;26196;52.302;10.572;2022-11-25T11:22:49;100596.66;;;10.53;52.40
40490;BME280;26196;52.302;10.572;2022-11-25T11:27:13;100598.41;;;10.52;52.64
40490;BME280;26196;52.302;10.572;2022-11-25T11:31:21;100597.47;;;10.55;52.58
40490;BME280;26196;52.302;10.572;2022-11-25T11:35:40;100600.00;;;10.58;52.33
40490;BME280;26196;52.302;10.572;2022-11-25T11:45:21;100594.66;;;10.63;53.07
40490;BME280;26196;52.302;10.572;2022-11-25T11:53:12;100600.72;;;10.65;52.85
40490;BME280;26196;52.302;10.572;2022-11-25T12:06:14;100609.31;;;10.70;53.32
40490;BME280;26196;52.302;10.572;2022-11-25T12:14:48;100607.47;;;10.73;53.39
40490;BME280;26196;52.302;10.572;2022-11-25T12:18:54;100610.91;;;10.76;53.60
40490;BME280;26196;52.302;10.572;2022-11-25T12:23:20;100590.34;;;10.62;54.09
40490;BME280;26196;52.302;10.572;2022-11-25T12:27:47;100613.50;;;10.77;53.70
40490;BME280;26196;52.302;10.572;2022-11-25T12:31:57;100610.97;;;10.74;53.91
40490;BME280;26196;52.302;10.572;2022-11-25T12:36:21;100630.00;;;10.79;53.96
40490;BME280;26196;52.302;10.572;2022-11-25T12:44:58;100635.19;;;10.82;54.19
40490;BME280;26196;52.302;10.572;2022-11-25T12:49:01;100633.47;;;10.81;54.27
40490;BME280;26196;52.302;10.572;2022-11-25T13:15:16;100665.41;;;10.94;54.68
40490;BME280;26196;52.302;10.572;2022-11-25T13:19:19;100666.25;;;10.96;54.83
40490;BME280;26196;52.302;10.572;2022-11-25T13:23:28;100668.00;;;10.95;54.83
40490;BME280;26196;52.302;10.572;2022-11-25T13:27:31;100674.03;;;10.99;54.75
40490;BME280;26196;52.302;10.572;2022-11-25T13:31:34;100674.00;;;11.01;54.51
40490;BME280;26196;52.302;10.572;2022-11-25T13:44:26;100678.28;;;11.03;54.81
40490;BME280;26196;52.302;10.572;2022-11-25T13:48:31;100679.97;;;11.06;54.84
40490;BME280;26196;52.302;10.572;2022-11-25T13:52:40;100686.91;;;11.07;55.02
40490;BME280;26196;52.302;10.572;2022-11-25T13:56:41;100694.69;;;11.10;55.11
40490;BME280;26196;52.302;10.572;2022-11-25T14:09:54;100710.31;;;11.13;55.20
40490;BME280;26196;52.302;10.572;2022-11-25T14:23:05;100718.91;;;11.18;55.24
40490;BME280;26196;52.302;10.572;2022-11-25T14:27:17;100716.31;;;11.18;55.36
40490;BME280;26196;52.302;10.572;2022-11-25T14:31:23;100729.38;;;11.20;55.41
40490;BME280;26196;52.302;10.572;2022-11-25T14:35:33;100737.16;;;11.23;55.77
40490;BME280;26196;52.302;10.572;2022-11-25T14:39:57;100745.88;;;11.23;55.50
40490;BME280;26196;52.302;10.572;2022-11-25T14:44:09;100743.25;;;11.23;55.67
40490;BME280;26196;52.302;10.572;2022-11-25T14:48:14;100746.69;;;11.25;55.89
40490;BME280;26196;52.302;10.572;2022-11-25T14:52:22;100756.28;;;11.26;55.73
40490;BME280;26196;52.302;10.572;2022-11-25T14:56:29;100741.72;;;11.16;56.08
40490;BME280;26196;52.302;10.572;2022-11-25T15:00:30;100750.16;;;11.26;55.80
40490;BME280;26196;52.302;10.572;2022-11-25T15:04:31;100758.00;;;11.27;55.61
40490;BME280;26196;52.302;10.572;2022-11-25T15:08:52;100765.69;;;11.33;55.38
40490;BME280;26196;52.302;10.572;2022-11-25T15:12:54;100773.47;;;11.36;56.00
40490;BME280;26196;52.302;10.572;2022-11-25T15:16:55;100779.59;;;11.37;55.85
40490;BME280;26196;52.302;10.572;2022-11-25T15:20:58;100779.59;;;11.37;56.22
40490;BME280;26196;52.302;10.572;2022-11-25T15:25:07;100785.59;;;11.41;55.69
40490;BME280;26196;52.302;10.572;2022-11-25T15:29:12;100792.56;;;11.42;56.01
40490;BME280;26196;52.302;10.572;2022-11-25T15:33:12;100782.97;;;11.41;56.39
40490;BME280;26196;52.302;10.572;2022-11-25T15:37:13;100795.22;;;11.40;56.15
40490;BME280;26196;52.302;10.572;2022-11-25T15:41:32;100804.69;;;11.46;56.05
40490;BME280;26196;52.302;10.572;2022-11-25T15:45:42;100806.41;;;11.47;56.25
40490;BME280;26196;52.302;10.572;2022-11-25T15:49:48;100799.44;;;11.46;56.39
40490;BME280;26196;52.302;10.572;2022-11-25T15:53:57;100803.88;;;11.44;56.12
40490;BME280;26196;52.302;10.572;2022-11-25T15:58:19;100806.41;;;11.47;56.26
40490;BME280;26196;52.302;10.572;2022-11-25T16:06:34;100814.16;;;11.51;56.65
40490;BME280;26196;52.302;10.572;2022-11-25T16:14:44;100828.84;;;11.57;57.03
40490;BME280;26196;52.302;10.572;2022-11-25T16:23:12;100848.09;;;11.57;56.39
40490;BME280;26196;52.302;10.572;2022-11-25T16:27:23;100850.72;;;11.57;56.71
40490;BME280;26196;52.302;10.572;2022-11-25T16:31:24;100860.22;;;11.60;56.38
40490;BME280;26196;52.302;10.572;2022-11-25T16:35:25;100854.03;;;11.64;56.58
40490;BME280;26196;52.302;10.572;2022-11-25T16:39:25;100861.88;;;11.64;56.66
40490;BME280;26196;52.302;10.572;2022-11-25T16:43:26;100867.97;;;11.65;56.29
40490;BME280;26196;52.302;10.572;2022-11-25T16:47:27;100883.63;;;11.68;56.42
40490;BME280;26196;52.302;10.572;2022-11-25T16:51:27;100887.13;;;11.68;56.49
40490;BME280;26196;52.302;10.572;2022-11-25T16:55:29;100890.56;;;11.70;56.77
40490;BME280;26196;52.302;10.572;2022-11-25T16:59:36;100900.16;;;11.71;56.68
40490;BME280;26196;52.302;10.572;2022-11-25T17:03:38;100894.91;;;11.71;56.94
40490;BME280;26196;52.302;10.572;2022-11-25T17:07:39;100896.72;;;11.69;56.71
40490;BME280;26196;52.302;10.572;2022-11-25T17:11:44;100895.59;;;11.78;56.99
40490;BME280;26196;52.302;10.572;2022-11-25T17:15:48;100911.22;;;11.82;56.67
40490;BME280;26196;52.302;10.572;2022-11-25T17:19:49;100910.34;;;11.83;56.38
40490;BME280;26196;52.302;10.572;2022-11-25T17:23:49;100910.34;;;11.83;56.75
40490;BME280;26196;52.302;10.572;2022-11-25T17:27:50;100917.31;;;11.85;56.85
40490;BME280;26196;52.302;10.572;2022-11-25T17:31:50;100924.25;;;11.87;57.01
40490;BME280;26196;52.302;10.572;2022-11-25T17:35:51;100929.44;;;11.89;56.61
40490;BME280;26196;52.302;10.572;2022-11-25T17:39:52;100933.97;;;11.83;56.59
40490;BME280;26196;52.302;10.572;2022-11-25T17:43:53;100946.94;;;11.90;56.60
40490;BME280;26196;52.302;10.572;2022-11-25T17:47:54;100944.22;;;11.93;56.69
40490;BME280;26196;52.302;10.572;2022-11-25T17:51:54;100952.00;;;11.96;56.66
40490;BME280;26196;52.302;10.572;2022-11-25T17:55:55;100946.69;;;11.99;56.44
40490;BME280;26196;52.302;10.572;2022-11-25T17:59:55;100955.47;;;11.98;56.96
40490;BME280;26196;52.302;10.572;2022-11-25T18:03:55;100962.56;;;11.94;57.00
40490;BME280;26196;52.302;10.572;2022-11-25T18:07:56;100976.44;;;11.98;56.80
40490;BME280;26196;52.302;10.572;2022-11-25T18:11:58;100978.25;;;11.96;56.78
40490;BME280;26196;52.302;10.572;2022-11-25T18:16:00;100976.44;;;11.98;56.61
40490;BME280;26196;52.302;10.572;2022-11-25T18:20:13;100986.03;;;11.99;56.87
40490;BME280;26196;52.302;10.572;2022-11-25T18:24:14;100981.69;;;11.98;56.77
40490;BME280;26196;52.302;10.572;2022-11-25T18:28:20;100992.97;;;12.01;57.30
40490;BME280;26196;52.302;10.572;2022-11-25T18:32:23;100985.19;;;11.98;57.29
40490;BME280;26196;52.302;10.572;2022-11-25T18:36:24;100997.34;;;12.01;56.93
40490;BME280;26196;52.302;10.572;2022-11-25T18:40:26;101009.59;;;12.02;56.99
40490;BME280;26196;52.302;10.572;2022-11-25T18:44:27;101007.94;;;11.98;57.01
40490;BME280;26196;52.302;10.572;2022-11-25T18:48:28;101008.72;;;12.01;57.43
40490;BME280;26196;52.302;10.572;2022-11-25T18:52:28;101016.63;;;12.00;57.00
40490;BME280;26196;52.302;10.572;2022-11-25T18:56:29;101015.78;;;11.99;57.05
40490;BME280;26196;52.302;10.572;2022-11-25T19:00:29;101016.66;;;11.98;56.93
40490;BME280;26196;52.302;10.572;2022-11-25T19:04:30;101031.44;;;12.02;57.08
40490;BME280;26196;52.302;10.572;2022-11-25T19:08:30;101022.00;;;11.94;57.12
40490;BME280;26196;52.302;10.572;2022-11-25T19:12:31;101047.09;;;12.06;57.21
40490;BME280;26196;52.302;10.572;2022-11-25T19:16:31;101055.91;;;12.03;56.58
40490;BME280;26196;52.302;10.572;2022-11-25T19:20:31;101063.75;;;12.04;57.24
40490;BME280;26196;52.302;10.572;2022-11-25T19:24:32;101064.59;;;12.05;57.28
40490;BME280;26196;52.302;10.572;2022-11-25T19:28:32;101071.56;;;12.08;57.34
40490;BME280;26196;52.302;10.572;2022-11-25T19:32:33;101084.63;;;12.09;56.68
40490;BME280;26196;52.302;10.572;2022-11-25T19:36:33;101082.78;;;12.13;57.01
40490;BME280;26196;52.302;10.572;2022-11-25T19:40:36;101086.28;;;12.13;57.13
40490;BME280;26196;52.302;10.572;2022-11-25T19:44:43;101091.53;;;12.13;56.88
40490;BME280;26196;52.302;10.572;2022-11-25T19:48:44;101106.34;;;12.14;57.03
40490;BME280;26196;52.302;10.572;2022-11-25T19:52:44;101107.16;;;12.18;57.10
40490;BME280;26196;52.302;10.572;2022-11-25T19:56:44;101105.41;;;12.17;56.78
40490;BME280;26196;52.302;10.572;2022-11-25T20:00:45;101122.78;;;12.22;57.29
40490;BME280;26196;52.302;10.572;2022-11-25T20:04:48;101128.09;;;12.19;56.85
40490;BME280;26196;52.302;10.572;2022-11-25T20:08:50;101135.13;;;12.19;56.80
40490;BME280;26196;52.302;10.572;2022-11-25T20:12:51;101131.66;;;12.17;56.60
40490;BME280;26196;52.302;10.572;2022-11-25T20:16:52;101140.34;;;12.20;57.17
40490;BME280;26196;52.302;10.572;2022-11-25T20:21:00;101144.59;;;12.26;56.97
40490;BME280;26196;52.302;10.572;2022-11-25T20:25:04;101141.91;;;12.27;56.81
40490;BME280;26196;52.302;10.572;2022-11-25T20:29:16;101155.09;;;12.26;56.78
40490;BME280;26196;52.302;10.572;2022-11-25T20:33:17;101158.47;;;12.30;56.70
40490;BME280;26196;52.302;10.572;2022-11-25T20:37:17;101164.56;;;12.32;56.66
40490;BME280;26196;52.302;10.572;2022-11-25T20:41:22;101168.03;;;12.32;56.84
40490;BME280;26196;52.302;10.572;2022-11-25T20:45:23;101170.72;;;12.31;56.57
40490;BME280;26196;52.302;10.572;2022-11-25T20:49:25;101190.75;;;12.35;56.75
40490;BME280;26196;52.302;10.572;2022-11-25T20:53:28;101184.72;;;12.30;56.87
40490;BME280;26196;52.302;10.572;2022-11-25T20:57:31;101187.22;;;12.36;56.58
40490;BME280;26196;52.302;10.572;2022-11-25T21:01:32;101197.50;;;12.45;56.85
40490;BME280;26196;52.302;10.572;2022-11-25T21:05:32;101202.66;;;12.48;57.09
40490;BME280;26196;52.302;10.572;2022-11-25T21:09:34;101198.34;;;12.47;56.87
40490;BME280;26196;52.302;10.572;2022-11-25T21:13:35;101202.66;;;12.48;57.33
40490;BME280;26196;52.302;10.572;2022-11-25T21:17:35;101206.28;;;12.44;56.52
40490;BME280;26196;52.302;10.572;2022-11-25T21:21:38;101219.34;;;12.47;56.82
40490;BME280;26196;52.302;10.572;2022-11-25T21:25:39;101231.56;;;12.48;57.38
40490;BME280;26196;52.302;10.572;2022-11-25T21:29:41;101229.84;;;12.47;56.73
40490;BME280;26196;52.302;10.572;2022-11-25T21:33:43;101236.88;;;12.46;56.94
40490;BME280;26196;52.302;10.572;2022-11-25T21:37:44;101248.16;;;12.50;56.84
40490;BME280;26196;52.302;10.572;2022-11-25T21:41:45;101250.78;;;12.50;57.33
40490;BME280;26196;52.302;10.572;2022-11-25T21:45:46;101254.31;;;12.49;56.71
40490;BME280;26196;52.302;10.572;2022-11-25T21:49:48;101256.03;;;12.50;56.89
40490;BME280;26196;52.302;10.572;2022-11-25T21:53:52;101265.63;;;12.51;56.60
40490;BME280;26196;52.302;10.572;2022-11-25T21:57:53;101267.34;;;12.52;56.92
40490;BME280;26196;52.302;10.572;2022-11-25T22:01:53;101263.13;;;12.46;56.74
40490;BME280;26196;52.302;10.572;2022-11-25T22:05:54;101278.91;;;12.45;56.64
40490;BME280;26196;52.302;10.572;2022-11-25T22:09:55;101283.31;;;12.43;56.75
40490;BME280;26196;52.302;10.572;2022-11-25T22:13:55;101285.94;;;12.43;57.09
40490;BME280;26196;52.302;10.572;2022-11-25T22:17:56;101286.78;;;12.45;56.95
40490;BME280;26196;52.302;10.572;2022-11-25T22:21:57;101287.63;;;12.45;57.35
40490;BME280;26196;52.302;10.572;2022-11-25T22:25:57;101292.88;;;12.45;56.99
40490;BME280;26196;52.302;10.572;2022-11-25T22:29:58;101295.56;;;12.44;57.52
40490;BME280;26196;52.302;10.572;2022-11-25T22:33:58;101297.28;;;12.45;57.49
40490;BME280;26196;52.302;10.572;2022-11-25T22:37:59;101306.84;;;12.47;57.17